Search for airport 
image banner adimage banner adimage banner ad
image banner ad

KABE - Lehigh Valley Intl

Located in Allentown, United States

ICAO - ABE, IATA - ABE

Data provided by Airmate  

General information

Coordinates: N40°39'9" W75°26'25"
Elevation is 394 feet MSL.
Magnetic variation is -12° East
View others Airports in Pennsylvania

Operational data

Special qualification required
Current time UTC:
Current local time:
Weather
METAR: KABE 091551Z 23007KT 10SM FEW100 12/04 A3007 RMK AO2 SLP183 T01170039 $
TAF: KABE 091120Z 0912/1012 VRB03KT P6SM SCT250 FM091900 15005KT 6SM -RA OVC015 TEMPO 0919/0921 3SM -RA BR OVC010 FM100000 08006KT P6SM VCSH OVC035 FM100600 09005KT P6SM OVC040 WS020/23040KT
View NOTAMs / SUP AIP / TFR affecting this airport [VIEW]
Communications frequencies: [VIEW]

Runways:

RWY identifierQFULength (ft)Width (ft)SurfaceLDA (ft)
0651°7599150ASPH7599
24231°7599150ASPH7089
13123°5800150ASPH5800
31303°5800150ASPH5800

Airport contact information

Address: Allentown United States

Other aviation service providers

Flight schools

Ace Pilot Training

Ace Pilot Training
office@acepilot.com+1(610)264-1105

Satellite view of KABE